Lindsborg, KS

8:44 AM CDT on April 30, 2017 (GMT -0500)
MC9356 | | Change Station

Elev 1318 ft 38.59 °N, 97.61 °W | Updated 8 minutes ago

Overcast
Overcast
40.0 °F
Feels Like 40 °F
N
0.0
Wind Variable Wind from NE
Gusts 4.0 mph

Today
High -- | Low -- °F
--% Chance of Precip.
Yesterday
High -- | Low -- °F
Precip. -- in
Pressure 29.54 in
Visibility 4.0 miles
Clouds Mostly Cloudy 700 ft
Overcast 1300 ft
Windchill 40 °F
Dew Point 39 °F
Humidity 96%
Rainfall 0.61 in
Snow Depth Not available.
6:34 AM 8:21 PM
Waxing Crescent, 23% visible
SPECI KSLN 301326Z 06010KT 4SM -RA BR BKN007 OVC013 06/04 A2954 RMK AO2 P0000 T00560044
Pressure 29.54 in
Visibility 4.0 miles
Clouds Mostly Cloudy 700 ft
Overcast 1300 ft
Windchill 40 °F
Dew Point 39 °F
Humidity 96%
Rainfall 0.61 in
Snow Depth Not available.
6:34 AM 8:21 PM
Waxing Crescent, 23% visible
SPECI KSLN 301326Z 06010KT 4SM -RA BR BKN007 OVC013 06/04 A2954 RMK AO2 P0000 T00560044

Get Severe Weather Alerts

Thanks for signing up!

Be on the lookout for a verification email in your inbox.

You'll start receiving the daily forecast at 8 AM.

×

10-Day Weather Forecast

Almanac

Astronomy

Apr. 30, 2017 Rise Set
Actual Time
Civil Twilight
Nautical Twilight
Astronomical Twilight
Moon
Length of Visible Light
Length of Day
Tomorrow will be .
, % of the Moon is Illuminated

Today's Extremes

State Highs State Lows

Community

WunderPhotos

WunderBlog® & News

Nearby

Air Quality

  Air Quality AQ Index Pollutant
Not available.

Snow Depth

Station Depth Elevation

Earthquake Activity

City Distance Mag. Time & Date
Minimum magnitude displayed is 2.5.

Coastal Water Temperatures

Place Temperature

Stations

Nearby Weather Stations

Station Location Temp. Windchill Dew Point Humidity Wind Precip. Elev Updated Type
                   

Watches & Warnings

There are currently no watches in effect.